createdAt,value
2022-07-26T04:00:57.118Z,23.14
2022-07-26T04:03:25.644Z,23.13
2022-07-26T04:05:55.211Z,23.16
2022-07-26T04:08:25.124Z,23.22
2022-07-26T04:10:54.152Z,23.31
2022-07-26T04:13:24.775Z,23.43
2022-07-26T04:15:53.652Z,23.50
2022-07-26T04:18:24.177Z,23.60
2022-07-26T04:20:54.138Z,23.75
2022-07-26T04:23:23.299Z,23.84
2022-07-26T04:25:52.476Z,23.92
2022-07-26T04:28:21.560Z,23.99
2022-07-26T04:30:50.690Z,24.13
2022-07-26T04:33:19.973Z,24.28
2022-07-26T04:35:49.165Z,24.53
2022-07-26T04:38:18.369Z,25.03
2022-07-26T04:40:47.485Z,25.67
2022-07-26T04:43:20.607Z,26.01
2022-07-26T04:45:50.572Z,26.23
2022-07-26T04:48:20.106Z,26.50
2022-07-26T04:50:49.369Z,27.03
2022-07-26T04:53:18.408Z,27.71
2022-07-26T04:55:48.495Z,28.07
2022-07-26T04:58:19.124Z,28.88
2022-07-26T05:01:09.412Z,29.81
2022-07-26T05:03:39.798Z,30.59
2022-07-26T05:06:08.797Z,31.32
2022-07-26T05:08:38.168Z,31.94
2022-07-26T05:11:07.821Z,32.02
2022-07-26T05:13:37.371Z,31.81
2022-07-26T05:16:11.672Z,32.00
2022-07-26T05:18:45.758Z,32.05
2022-07-26T05:21:19.324Z,32.05
2022-07-26T05:23:50.646Z,32.54
2022-07-26T05:26:19.079Z,33.52
2022-07-26T05:28:47.524Z,34.61
2022-07-26T05:31:17.278Z,35.58
2022-07-26T05:33:46.027Z,36.15
2022-07-26T05:36:14.763Z,36.59
2022-07-26T05:38:43.506Z,36.68
2022-07-26T05:41:12.852Z,35.79
2022-07-26T05:43:42.325Z,34.85
2022-07-26T05:46:12.848Z,34.21
2022-07-26T05:48:43.531Z,34.57
2022-07-26T05:51:13.213Z,34.95
2022-07-26T05:53:42.388Z,34.90
2022-07-26T05:56:11.694Z,34.10
2022-07-26T05:58:40.899Z,33.31
2022-07-26T06:01:10.386Z,32.59
2022-07-26T06:03:39.195Z,31.90
2022-07-26T06:06:08.405Z,31.24
2022-07-26T06:08:37.794Z,30.68
2022-07-26T06:11:06.747Z,30.23
2022-07-26T06:13:35.772Z,29.85
2022-07-26T06:16:05.645Z,29.52
2022-07-26T06:18:34.366Z,29.23
2022-07-26T06:21:02.845Z,28.96
2022-07-26T06:23:34.694Z,28.67
2022-07-26T06:26:05.006Z,28.41
2022-07-26T06:28:34.546Z,28.21
2022-07-26T06:31:03.139Z,28.02
2022-07-26T06:33:31.869Z,27.82
2022-07-26T06:36:00.979Z,27.60
2022-07-26T06:38:29.494Z,27.38
2022-07-26T06:40:58.931Z,27.14
2022-07-26T06:43:28.057Z,26.84
2022-07-26T06:45:57.206Z,26.61
2022-07-26T06:48:25.802Z,26.41
2022-07-26T06:50:54.378Z,26.21
2022-07-26T06:53:23.539Z,26.06
2022-07-26T06:55:52.315Z,25.89
2022-07-26T06:58:20.759Z,25.76
2022-07-26T07:00:50.042Z,25.72
2022-07-26T07:03:19.562Z,25.63
2022-07-26T07:05:50.002Z,25.59
2022-07-26T07:08:21.753Z,25.65
2022-07-26T07:10:54.216Z,25.77
2022-07-26T07:13:26.002Z,25.96
2022-07-26T07:15:55.365Z,26.10
2022-07-26T07:18:24.087Z,26.26
2022-07-26T07:20:53.149Z,26.32
2022-07-26T07:23:23.682Z,26.36
2022-07-26T07:25:52.727Z,26.38
2022-07-26T07:28:22.217Z,26.42
2022-07-26T07:30:52.819Z,26.38
2022-07-26T07:33:23.115Z,26.34
2022-07-26T07:35:54.546Z,26.41
2022-07-26T07:38:22.919Z,26.49
2022-07-26T07:40:52.791Z,26.58
2022-07-26T07:43:23.543Z,26.68
2022-07-26T07:45:52.139Z,26.74
2022-07-26T07:48:20.859Z,26.78
2022-07-26T07:50:50.153Z,26.80
2022-07-26T07:53:18.575Z,26.83
2022-07-26T07:55:49.360Z,26.80
2022-07-26T07:58:20.519Z,26.71
2022-07-26T08:00:49.938Z,26.57
2022-07-26T08:03:24.342Z,26.43
2022-07-26T08:06:10.934Z,26.30
2022-07-26T08:08:40.302Z,26.14
2022-07-26T08:11:09.476Z,26.03
2022-07-26T08:13:47.284Z,25.83
2022-07-26T08:16:17.468Z,25.69
2022-07-26T08:18:57.787Z,25.57
2022-07-26T08:21:37.683Z,25.42
2022-07-26T08:24:06.650Z,25.31
2022-07-26T08:26:35.064Z,25.25
2022-07-26T08:29:04.068Z,25.20
2022-07-26T08:31:32.721Z,25.18
2022-07-26T08:34:01.638Z,25.19
2022-07-26T08:36:32.555Z,25.20
2022-07-26T08:39:02.054Z,25.21
2022-07-26T08:41:31.965Z,25.22
2022-07-26T08:44:09.127Z,25.28
2022-07-26T08:46:41.829Z,25.31
2022-07-26T08:49:13.528Z,25.40
2022-07-26T08:51:45.303Z,25.54
2022-07-26T08:54:16.247Z,25.61
2022-07-26T08:56:53.059Z,25.66
2022-07-26T08:59:23.436Z,25.79
2022-07-26T09:01:57.208Z,25.85
2022-07-26T09:04:32.154Z,25.92
2022-07-26T09:07:22.293Z,26.07
2022-07-26T09:10:01.045Z,26.12
2022-07-26T09:12:32.572Z,26.25
2022-07-26T09:15:03.403Z,26.33
2022-07-26T09:17:44.282Z,26.30
2022-07-26T09:20:15.649Z,26.24
2022-07-26T09:23:03.299Z,26.22
2022-07-26T09:25:35.340Z,26.27
2022-07-26T09:28:21.264Z,26.32
2022-07-26T09:30:55.533Z,26.22
2022-07-26T09:33:24.867Z,26.13
2022-07-26T09:36:06.914Z,26.12
2022-07-26T09:38:46.071Z,26.09
2022-07-26T09:41:34.951Z,26.06
2022-07-26T09:44:07.349Z,26.02
2022-07-26T09:46:57.526Z,25.95
2022-07-26T09:49:40.252Z,25.85
2022-07-26T09:52:22.229Z,25.72
2022-07-26T09:54:51.939Z,25.64
2022-07-26T09:57:21.690Z,25.55
2022-07-26T09:59:51.813Z,25.46
2022-07-26T10:02:20.770Z,25.31
2022-07-26T10:04:49.210Z,25.19
2022-07-26T10:07:18.769Z,25.16
2022-07-26T10:10:09.446Z,25.16
2022-07-26T10:12:38.149Z,25.08
2022-07-26T10:15:33.768Z,24.97
2022-07-26T10:18:03.652Z,24.78
2022-07-26T10:20:44.504Z,24.58
2022-07-26T10:23:33.486Z,24.41
2022-07-26T10:26:03.729Z,24.30
2022-07-26T10:28:34.849Z,24.22
2022-07-26T10:31:32.822Z,24.14
2022-07-26T10:34:07.100Z,24.06
2022-07-26T10:36:40.608Z,24.09
2022-07-26T10:39:24.368Z,24.12
2022-07-26T10:42:00.933Z,24.12
2022-07-26T10:44:31.969Z,24.08
2022-07-26T10:47:11.750Z,24.21
2022-07-26T10:49:43.887Z,24.43
2022-07-26T10:52:19.584Z,24.71
2022-07-26T10:54:57.445Z,24.99
2022-07-26T10:57:28.020Z,25.17
2022-07-26T10:59:59.292Z,25.31
2022-07-26T11:02:33.441Z,25.38
2022-07-26T11:05:16.599Z,25.47
2022-07-26T11:08:05.729Z,25.47
2022-07-26T11:10:41.365Z,25.50
2022-07-26T11:13:15.053Z,25.56
2022-07-26T11:15:54.909Z,25.52
2022-07-26T11:18:28.899Z,25.47
2022-07-26T11:21:09.253Z,25.41
2022-07-26T11:23:40.368Z,25.32
2022-07-26T11:26:21.190Z,25.19
2022-07-26T11:29:01.356Z,25.06
2022-07-26T11:31:50.582Z,24.91
2022-07-26T11:34:34.241Z,24.77
2022-07-26T11:37:05.358Z,24.64
2022-07-26T11:39:36.804Z,24.57
2022-07-26T11:42:16.939Z,24.50
2022-07-26T11:44:47.684Z,24.47
2022-07-26T11:47:25.536Z,24.45
2022-07-26T11:52:44.616Z,24.40
2022-07-26T11:55:14.044Z,24.28
2022-07-26T11:57:42.957Z,24.15
2022-07-26T12:00:13.993Z,24.07
2022-07-26T12:02:44.302Z,23.95
2022-07-26T12:05:20.004Z,23.87
2022-07-26T12:07:59.424Z,23.86
2022-07-26T12:10:30.505Z,23.85
2022-07-26T12:13:14.047Z,23.86
2022-07-26T12:15:47.868Z,23.84
2022-07-26T12:18:27.934Z,23.80
2022-07-26T12:21:04.963Z,23.76
2022-07-26T12:23:50.120Z,23.74
2022-07-26T12:26:25.345Z,23.76
2022-07-26T12:28:56.864Z,23.72
2022-07-26T12:31:33.318Z,23.72
2022-07-26T12:34:02.456Z,23.80
2022-07-26T12:36:36.315Z,23.86
2022-07-26T12:39:06.662Z,23.91
2022-07-26T12:41:38.458Z,23.94
2022-07-26T12:44:12.829Z,24.00
2022-07-26T12:46:45.450Z,24.06
2022-07-26T12:49:15.705Z,24.12
2022-07-26T12:51:45.362Z,24.10
2022-07-26T12:54:15.079Z,24.03
2022-07-26T12:56:46.554Z,23.98
2022-07-26T12:59:17.668Z,23.99
2022-07-26T13:01:50.294Z,24.00
2022-07-26T13:04:20.495Z,24.02
2022-07-26T13:06:54.689Z,24.02
2022-07-26T13:09:28.160Z,24.00
2022-07-26T13:12:00.009Z,23.98
2022-07-26T13:14:28.967Z,23.98
2022-07-26T13:16:58.887Z,23.97
2022-07-26T13:19:30.082Z,23.97
2022-07-26T13:22:00.803Z,23.96
2022-07-26T13:24:31.396Z,23.89
2022-07-26T13:27:03.132Z,23.90
2022-07-26T13:29:34.700Z,23.86
2022-07-26T13:32:05.339Z,23.86
2022-07-26T13:34:35.456Z,23.87
2022-07-26T13:37:08.577Z,23.83
2022-07-26T13:39:38.201Z,23.79
2022-07-26T13:42:09.333Z,23.83
2022-07-26T13:44:41.655Z,23.93
2022-07-26T13:47:10.400Z,24.05
2022-07-26T13:49:40.786Z,24.15
2022-07-26T13:52:15.828Z,24.19
2022-07-26T13:54:45.876Z,24.25
2022-07-26T13:57:15.068Z,24.29
2022-07-26T13:59:44.613Z,24.34
2022-07-26T14:02:14.134Z,24.35
2022-07-26T14:04:43.161Z,24.43
2022-07-26T14:07:12.407Z,24.51
2022-07-26T14:09:41.102Z,24.61
2022-07-26T14:12:13.736Z,24.74
2022-07-26T14:14:42.298Z,24.82
2022-07-26T14:17:10.837Z,24.87
2022-07-26T14:19:40.253Z,24.95
2022-07-26T14:22:09.818Z,24.97
2022-07-26T14:24:38.341Z,24.94
2022-07-26T14:27:08.766Z,24.91
2022-07-26T14:29:37.732Z,24.98
2022-07-26T14:32:07.598Z,25.07
2022-07-26T14:34:37.281Z,25.17
2022-07-26T14:37:09.952Z,25.25
2022-07-26T14:39:55.228Z,25.31
2022-07-26T14:42:28.260Z,25.33
2022-07-26T14:44:57.658Z,25.35
2022-07-26T14:47:26.780Z,25.35
2022-07-26T14:49:56.150Z,25.38
2022-07-26T14:52:25.404Z,25.47
2022-07-26T14:54:54.713Z,25.54
2022-07-26T14:57:23.101Z,25.54
2022-07-26T14:59:52.535Z,25.47
2022-07-26T15:02:21.425Z,25.48
2022-07-26T15:04:50.032Z,25.40
2022-07-26T15:07:18.966Z,25.38
2022-07-26T15:09:48.428Z,25.44
2022-07-26T15:12:17.712Z,25.49
2022-07-26T15:14:46.485Z,25.55
2022-07-26T15:17:15.122Z,25.61
2022-07-26T15:19:43.589Z,25.66
2022-07-26T15:22:12.381Z,25.69
2022-07-26T15:24:40.958Z,25.72
2022-07-26T15:27:10.239Z,25.74
2022-07-26T15:29:46.955Z,25.77
2022-07-26T15:32:16.082Z,25.80
2022-07-26T15:34:47.683Z,25.81
2022-07-26T15:37:17.295Z,25.81
2022-07-26T15:39:46.530Z,25.79
2022-07-26T15:42:16.162Z,25.78
2022-07-26T15:44:47.126Z,25.80
2022-07-26T15:47:53.278Z,25.83
2022-07-26T15:50:12.536Z,25.85
2022-07-26T15:52:49.588Z,25.84
2022-07-26T15:55:20.283Z,25.80
2022-07-26T15:57:49.714Z,25.79
2022-07-26T16:00:19.386Z,25.83
2022-07-26T16:02:49.108Z,25.81
2022-07-26T16:05:18.442Z,25.79
2022-07-26T16:07:48.459Z,25.76
2022-07-26T16:10:18.018Z,25.73
2022-07-26T16:12:47.235Z,25.72
2022-07-26T16:15:16.642Z,25.71
2022-07-26T16:17:46.038Z,25.72
2022-07-26T16:20:16.789Z,25.72
2022-07-26T16:22:50.296Z,25.68
2022-07-26T16:25:19.795Z,25.67
2022-07-26T16:27:50.057Z,25.67
2022-07-26T16:30:20.029Z,25.68
2022-07-26T16:32:49.237Z,25.65
2022-07-26T16:35:18.618Z,25.63
2022-07-26T16:37:50.051Z,25.61
2022-07-26T16:40:19.369Z,25.59
2022-07-26T16:42:48.652Z,25.53
2022-07-26T16:45:18.159Z,25.54
2022-07-26T16:47:47.729Z,25.55
2022-07-26T16:50:27.321Z,25.57
2022-07-26T16:52:59.016Z,25.58
2022-07-26T16:55:28.805Z,25.57
2022-07-26T16:57:58.080Z,25.53
2022-07-26T17:00:27.894Z,25.49
2022-07-26T17:02:56.877Z,25.49
2022-07-26T17:05:26.411Z,25.49
2022-07-26T17:07:56.878Z,25.48
2022-07-26T17:10:28.763Z,25.49
2022-07-26T17:12:58.487Z,25.48
2022-07-26T17:15:27.643Z,25.47
2022-07-26T17:17:57.121Z,25.44
2022-07-26T17:20:30.328Z,25.44
2022-07-26T17:23:02.311Z,25.42
2022-07-26T17:25:31.389Z,25.42
2022-07-26T17:28:01.811Z,25.42
2022-07-26T17:30:31.287Z,25.41
2022-07-26T17:33:02.396Z,25.39
2022-07-26T17:35:32.218Z,25.35
2022-07-26T17:38:04.167Z,25.33
2022-07-26T17:40:34.635Z,25.33
2022-07-26T17:43:05.407Z,25.31
2022-07-26T17:45:35.004Z,25.29
2022-07-26T17:48:06.543Z,25.27
2022-07-26T17:50:37.377Z,25.24
2022-07-26T17:53:07.528Z,25.21
2022-07-26T17:55:37.349Z,25.16
2022-07-26T17:58:06.655Z,25.13
2022-07-26T18:00:35.409Z,25.07
2022-07-26T18:03:08.867Z,25.03
2022-07-26T18:05:41.399Z,25.00
2022-07-26T18:08:11.391Z,24.96
2022-07-26T18:10:50.600Z,24.90
2022-07-26T18:13:21.666Z,24.82
2022-07-26T18:15:51.692Z,24.69
2022-07-26T18:18:20.958Z,24.54
2022-07-26T18:20:50.496Z,24.42
2022-07-26T18:23:19.413Z,24.33
2022-07-26T18:25:48.989Z,24.20
2022-07-26T18:28:18.152Z,24.11
2022-07-26T18:30:47.112Z,24.02
2022-07-26T18:33:18.878Z,23.93
2022-07-26T18:35:48.111Z,23.82
2022-07-26T18:38:17.155Z,23.71
2022-07-26T18:40:45.819Z,23.57
2022-07-26T18:43:14.330Z,23.42
2022-07-26T18:45:43.387Z,23.30
2022-07-26T18:48:12.292Z,23.21
2022-07-26T18:50:44.439Z,23.13
2022-07-26T18:53:13.571Z,23.06
2022-07-26T18:55:42.872Z,22.99
2022-07-26T18:58:12.075Z,22.88
2022-07-26T19:00:41.516Z,22.78
2022-07-26T19:03:11.871Z,22.78
2022-07-26T19:05:42.782Z,22.80
2022-07-26T19:08:11.176Z,22.78
2022-07-26T19:10:39.688Z,22.73
2022-07-26T19:13:08.153Z,22.72
2022-07-26T19:15:36.681Z,22.69
2022-07-26T19:18:16.280Z,22.60
2022-07-26T19:20:44.936Z,22.52
2022-07-26T19:23:17.174Z,22.44
2022-07-26T19:25:48.300Z,22.36
2022-07-26T19:28:17.302Z,22.29
2022-07-26T19:30:47.634Z,22.24
2022-07-26T19:33:19.667Z,22.18
2022-07-26T19:35:49.211Z,22.09
2022-07-26T19:38:18.938Z,22.01
2022-07-26T19:40:48.759Z,21.98
2022-07-26T19:43:18.527Z,21.94
2022-07-26T19:45:49.793Z,21.88
2022-07-26T19:48:21.299Z,21.83
2022-07-26T19:50:52.732Z,21.75
2022-07-26T19:53:22.331Z,21.63
2022-07-26T19:55:51.576Z,21.54
2022-07-26T19:58:20.415Z,21.49
2022-07-26T20:00:56.253Z,21.45
2022-07-26T20:03:25.259Z,21.41
2022-07-26T20:05:58.873Z,21.40
2022-07-26T20:08:28.892Z,21.37
2022-07-26T20:10:58.958Z,21.35
2022-07-26T20:13:27.463Z,21.34
2022-07-26T20:15:55.987Z,21.30
2022-07-26T20:18:28.493Z,21.27
2022-07-26T20:20:59.215Z,21.25
2022-07-26T20:23:29.115Z,21.21
2022-07-26T20:25:57.729Z,21.15
2022-07-26T20:28:27.462Z,21.11
2022-07-26T20:30:56.414Z,21.06
2022-07-26T20:33:25.795Z,21.06
2022-07-26T20:35:55.502Z,21.05
2022-07-26T20:38:25.290Z,21.02
2022-07-26T20:40:53.949Z,20.96
2022-07-26T20:43:22.734Z,20.95
2022-07-26T20:45:51.774Z,20.96
2022-07-26T20:48:21.129Z,20.92
2022-07-26T20:50:50.386Z,20.88
2022-07-26T20:53:19.177Z,20.82
2022-07-26T20:55:47.841Z,20.73
2022-07-26T20:58:17.984Z,20.61
